Time;durP1;ratioP1;P1;durP2;ratioP2;P2;SDS_P1;SDS_P2;PMS_P1;PMS_P2;Temp;Humidity;BMP_temperature;BMP_pressure;BME280_temperature;BME280_humidity;BME280_pressure;Samples;Min_cycle;Max_cycle;Signal;HPM_P1;HPM_P2
2022/01/22 00:00:59;;;;;;;4.45;1.60;;;5.50;95.60;;;;;;2085707;28;20041;-87
2022/01/22 00:02:00;;;;;;;4.25;1.60;;;5.60;95.60;;;;;;2098506;28;20478;-87
2022/01/22 00:03:01;;;;;;;5.07;1.50;;;5.50;95.60;;;;;;2106007;28;20044;-87
2022/01/22 00:04:02;;;;;;;5.40;1.75;;;5.50;95.60;;;;;;2095916;28;20032;-87
2022/01/22 00:05:06;;;;;;;5.15;1.30;;;5.50;95.60;;;;;;2087480;28;20052;-87
2022/01/22 00:06:07;;;;;;;4.22;1.45;;;5.50;95.60;;;;;;2088674;28;20142;-87
2022/01/22 00:07:10;;;;;;;4.57;1.15;;;5.50;95.60;;;;;;2089744;28;20103;-87
2022/01/22 00:08:11;;;;;;;5.47;1.40;;;5.50;95.60;;;;;;2089135;28;20033;-87
2022/01/22 00:09:12;;;;;;;4.10;1.40;;;5.50;95.60;;;;;;2072552;28;20650;-87
2022/01/22 00:10:15;;;;;;;5.60;1.42;;;5.50;95.60;;;;;;2081013;28;20056;-87
2022/01/22 00:11:15;;;;;;;4.35;1.30;;;5.50;95.60;;;;;;2089263;28;20090;-87
2022/01/22 00:12:29;;;;;;;3.45;1.30;;;5.60;95.70;;;;;;2088346;28;20091;-87
2022/01/22 00:14:49;;;;;;;4.78;1.55;;;5.60;95.60;;;;;;2083563;28;20037;-86
2022/01/22 00:15:50;;;;;;;3.47;1.10;;;5.50;95.60;;;;;;2080137;28;20030;-87
2022/01/22 00:16:59;;;;;;;2.60;1.27;;;5.50;95.60;;;;;;2079165;28;20478;-87
2022/01/22 00:18:00;;;;;;;5.57;1.35;;;5.50;95.60;;;;;;2086831;28;20087;-88
2022/01/22 00:19:01;;;;;;;3.67;1.25;;;5.60;95.60;;;;;;2089862;28;20029;-87
2022/01/22 00:20:06;;;;;;;4.60;1.33;;;5.50;95.60;;;;;;2090183;28;20041;-87
2022/01/22 00:21:07;;;;;;;4.47;1.40;;;5.50;95.60;;;;;;2085399;28;20495;-87
2022/01/22 00:22:08;;;;;;;4.05;1.48;;;5.50;95.60;;;;;;2095685;28;20032;-87
2022/01/22 00:23:08;;;;;;;4.00;1.35;;;5.60;95.70;;;;;;2084759;28;20041;-87
2022/01/22 00:24:11;;;;;;;8.10;1.80;;;5.60;95.70;;;;;;2072817;28;20073;-87
2022/01/22 00:25:14;;;;;;;6.35;1.50;;;5.50;95.70;;;;;;2081245;28;20172;-87
2022/01/22 00:26:14;;;;;;;5.90;1.50;;;5.60;95.70;;;;;;2089372;28;20032;-87
2022/01/22 00:27:15;;;;;;;2.92;1.23;;;5.50;95.70;;;;;;2073476;28;20415;-87
2022/01/22 00:28:15;;;;;;;5.65;1.55;;;5.50;95.70;;;;;;2072869;28;20046;-87
2022/01/22 00:29:16;;;;;;;5.85;1.70;;;5.60;95.70;;;;;;2097606;28;20056;-87
2022/01/22 00:30:20;;;;;;;4.63;1.50;;;5.50;95.70;;;;;;2081008;28;20029;-87
2022/01/22 00:31:21;;;;;;;5.43;1.40;;;5.50;95.70;;;;;;2082001;28;20184;-87
2022/01/22 00:32:22;;;;;;;3.13;1.23;;;5.60;95.70;;;;;;2097939;28;20513;-86
2022/01/22 00:33:22;;;;;;;7.07;1.50;;;5.60;95.70;;;;;;2102526;28;20105;-87
2022/01/22 00:34:23;;;;;;;4.65;1.60;;;5.60;95.70;;;;;;2097068;28;20040;-87
2022/01/22 00:35:25;;;;;;;4.80;1.50;;;5.60;95.70;;;;;;2071418;28;20099;-87
2022/01/22 00:36:26;;;;;;;6.80;1.60;;;5.60;95.70;;;;;;2077276;28;20109;-87
2022/01/22 00:37:26;;;;;;;2.58;1.10;;;5.60;95.70;;;;;;2075253;28;20041;-87
2022/01/22 00:38:27;;;;;;;3.63;1.52;;;5.60;95.70;;;;;;2087394;28;20052;-87
2022/01/22 00:39:27;;;;;;;3.90;1.30;;;5.60;95.70;;;;;;2078708;28;20209;-87
2022/01/22 00:40:28;;;;;;;3.72;1.52;;;5.60;95.70;;;;;;2070642;28;20038;-87
2022/01/22 00:41:29;;;;;;;5.28;1.52;;;5.60;95.70;;;;;;2071839;28;20038;-87
2022/01/22 00:42:32;;;;;;;5.38;1.60;;;5.60;95.70;;;;;;2082175;28;20034;-87
2022/01/22 00:43:32;;;;;;;4.40;1.70;;;5.60;95.70;;;;;;2080221;28;20499;-87
2022/01/22 00:44:33;;;;;;;3.60;1.45;;;5.60;95.70;;;;;;2093859;28;20033;-87
2022/01/22 00:45:34;;;;;;;5.32;1.60;;;5.60;95.70;;;;;;2078302;28;20038;-87
2022/01/22 00:46:34;;;;;;;6.30;1.65;;;5.60;95.70;;;;;;2091715;28;20495;-87
2022/01/22 00:47:35;;;;;;;5.22;1.88;;;5.60;95.70;;;;;;2079196;28;20061;-87
2022/01/22 00:48:36;;;;;;;4.63;1.75;;;5.60;95.70;;;;;;2080762;28;20029;-87
2022/01/22 00:49:37;;;;;;;3.53;1.40;;;5.60;95.80;;;;;;2089161;28;20534;-87
2022/01/22 00:50:38;;;;;;;4.90;1.60;;;5.60;95.70;;;;;;2076233;28;20045;-87
2022/01/22 00:51:39;;;;;;;4.50;1.70;;;5.60;95.70;;;;;;2073676;28;20042;-87
2022/01/22 00:52:45;;;;;;;3.92;1.35;;;5.60;95.70;;;;;;2090889;28;20029;-87
2022/01/22 00:53:46;;;;;;;4.13;1.40;;;5.60;95.80;;;;;;2090760;28;20021;-87
2022/01/22 00:54:47;;;;;;;4.10;1.30;;;5.60;95.80;;;;;;2082585;28;20545;-87
2022/01/22 00:55:47;;;;;;;5.25;1.55;;;5.60;95.80;;;;;;2083276;28;20042;-87
2022/01/22 00:56:48;;;;;;;5.13;1.90;;;5.60;95.80;;;;;;2082608;28;20045;-87
2022/01/22 00:57:49;;;;;;;3.13;1.50;;;5.60;95.80;;;;;;2082886;28;20068;-88
2022/01/22 00:58:49;;;;;;;6.00;1.67;;;5.60;95.80;;;;;;2090206;28;20052;-87
2022/01/22 00:59:50;;;;;;;3.63;1.45;;;5.60;95.80;;;;;;2090914;28;20044;-87
2022/01/22 01:00:51;;;;;;;3.28;1.40;;;5.60;95.80;;;;;;2092736;28;20059;-88
2022/01/22 01:01:51;;;;;;;5.10;1.70;;;5.60;95.80;;;;;;2094235;28;20064;-87
2022/01/22 01:02:52;;;;;;;5.25;1.67;;;5.60;95.80;;;;;;2090484;28;20071;-87
2022/01/22 01:03:53;;;;;;;3.38;1.60;;;5.60;95.80;;;;;;2082519;28;20049;-87
2022/01/22 01:04:54;;;;;;;4.03;1.58;;;5.60;95.80;;;;;;2090732;28;20040;-87
2022/01/22 01:05:54;;;;;;;4.13;1.60;;;5.60;95.80;;;;;;2086636;28;20495;-87
2022/01/22 01:06:55;;;;;;;3.92;1.50;;;5.60;95.80;;;;;;2078098;28;20042;-88
2022/01/22 01:07:56;;;;;;;5.85;1.40;;;5.60;95.80;;;;;;2094432;28;20063;-87
2022/01/22 01:08:59;;;;;;;4.40;1.63;;;5.60;95.80;;;;;;2090476;28;20052;-87
2022/01/22 01:10:00;;;;;;;4.30;1.70;;;5.60;95.90;;;;;;2090593;28;20083;-87
2022/01/22 01:11:01;;;;;;;3.70;1.45;;;5.60;95.90;;;;;;2082022;28;20467;-87
2022/01/22 01:12:06;;;;;;;5.13;1.55;;;5.60;95.90;;;;;;2089210;28;20029;-88
2022/01/22 01:13:06;;;;;;;4.68;1.40;;;5.60;95.90;;;;;;2099788;28;20040;-88
2022/01/22 01:14:10;;;;;;;3.55;1.80;;;5.60;95.90;;;;;;2099621;28;20032;-87
2022/01/22 01:17:57;;;;;;;5.75;1.60;;;5.60;95.90;;;;;;2107315;28;20040;-88
2022/01/22 01:32:30;;;;;;;4.03;1.63;;;5.60;95.80;;;;;;2087439;28;20064;-87
2022/01/22 01:33:45;;;;;;;4.70;1.67;;;5.60;95.80;;;;;;2094589;28;20118;-87
2022/01/22 01:34:48;;;;;;;4.50;1.42;;;5.60;95.80;;;;;;2098501;28;20502;-87
2022/01/22 01:35:49;;;;;;;2.75;1.40;;;5.60;95.80;;;;;;2091018;28;20041;-87
2022/01/22 01:36:50;;;;;;;3.33;1.73;;;5.60;95.80;;;;;;2098884;28;20040;-87
2022/01/22 01:37:52;;;;;;;4.30;1.48;;;5.60;95.80;;;;;;2092029;28;20028;-87
2022/01/22 01:38:57;;;;;;;3.42;1.60;;;5.60;95.90;;;;;;2086133;28;20041;-87
2022/01/22 01:40:02;;;;;;;4.50;1.50;;;5.70;95.90;;;;;;2090669;28;20134;-88
2022/01/22 01:41:11;;;;;;;3.70;1.63;;;5.60;95.90;;;;;;2085932;28;20136;-87
2022/01/22 01:42:18;;;;;;;6.28;1.90;;;5.60;95.90;;;;;;2075122;28;20041;-87
2022/01/22 01:43:24;;;;;;;5.82;2.10;;;5.60;95.90;;;;;;2086286;28;20029;-88
2022/01/22 01:44:25;;;;;;;5.22;1.98;;;5.60;95.90;;;;;;2092233;28;20044;-87
2022/01/22 01:45:27;;;;;;;4.55;1.75;;;5.70;95.90;;;;;;2091235;28;20064;-88
2022/01/22 01:46:30;;;;;;;5.03;1.70;;;5.60;95.90;;;;;;2083745;28;20037;-87
2022/01/22 01:47:32;;;;;;;4.80;1.70;;;5.60;95.90;;;;;;2067005;28;20122;-87
2022/01/22 01:48:38;;;;;;;4.47;1.88;;;5.70;95.90;;;;;;2089855;28;20123;-88
2022/01/22 01:49:38;;;;;;;4.07;1.70;;;5.70;95.90;;;;;;2087410;28;20044;-87
2022/01/22 01:50:41;;;;;;;5.05;2.00;;;5.70;96.20;;;;;;2080802;28;20042;-87
2022/01/22 01:51:42;;;;;;;5.95;1.70;;;5.60;95.90;;;;;;2087790;28;20496;-88
2022/01/22 01:52:51;;;;;;;3.70;1.50;;;5.70;95.90;;;;;;2087918;28;20044;-87
2022/01/22 01:55:22;;;;;;;5.60;1.80;;;5.70;95.90;;;;;;2049245;28;20043;-88
2022/01/22 01:57:44;;;;;;;4.55;1.70;;;5.60;95.90;;;;;;2091419;28;20128;-88
2022/01/22 01:58:44;;;;;;;5.15;2.17;;;5.70;96.00;;;;;;2082881;28;20068;-87
2022/01/22 01:59:46;;;;;;;4.28;2.00;;;5.60;95.90;;;;;;2082571;28;20107;-87
2022/01/22 02:00:47;;;;;;;3.75;1.85;;;5.60;95.90;;;;;;2088598;28;20427;-88
2022/01/22 02:01:48;;;;;;;6.78;2.08;;;5.60;95.90;;;;;;2090418;28;20037;-88
2022/01/22 02:02:50;;;;;;;6.07;2.20;;;5.70;96.00;;;;;;2082117;28;20535;-88
2022/01/22 02:03:50;;;;;;;4.13;2.00;;;5.70;96.30;;;;;;2065039;28;20030;-87
2022/01/22 02:04:51;;;;;;;6.25;2.20;;;5.70;96.00;;;;;;2064939;28;20034;-88
2022/01/22 02:05:52;;;;;;;5.55;2.75;;;5.60;96.00;;;;;;2070100;28;20034;-88
2022/01/22 02:06:53;;;;;;;6.22;2.25;;;5.70;96.00;;;;;;2082071;28;20492;-88
2022/01/22 02:07:55;;;;;;;4.93;2.38;;;5.70;96.00;;;;;;2079854;28;20399;-87
2022/01/22 02:08:56;;;;;;;4.55;2.35;;;5.70;96.00;;;;;;2068020;28;20042;-88
2022/01/22 02:09:59;;;;;;;5.72;2.30;;;5.70;96.00;;;;;;2078565;28;20439;-87
2022/01/22 02:11:01;;;;;;;8.73;2.38;;;5.70;96.00;;;;;;2095367;28;20037;-88
2022/01/22 02:12:48;;;;;;;6.13;2.50;;;5.60;96.00;;;;;;2086993;28;20057;-88
2022/01/22 02:23:44;;;;;;;2.90;1.90;;;5.70;96.00;;;;;;2090838;28;20037;-88
2022/01/22 02:24:45;;;;;;;4.95;2.30;;;5.70;96.00;;;;;;2082195;28;20033;-88
2022/01/22 02:25:46;;;;;;;4.05;2.20;;;5.70;96.00;;;;;;2082908;28;20033;-88
2022/01/22 02:26:48;;;;;;;4.53;2.40;;;5.70;96.00;;;;;;2098475;28;20059;-88
2022/01/22 02:27:49;;;;;;;5.05;2.33;;;5.70;96.00;;;;;;2097546;28;20028;-88
2022/01/22 02:28:51;;;;;;;3.45;2.00;;;5.70;96.00;;;;;;2081587;28;20475;-88
2022/01/22 02:29:52;;;;;;;4.75;2.30;;;5.70;96.00;;;;;;2081996;28;20029;-88
2022/01/22 02:31:00;;;;;;;4.03;2.30;;;5.70;96.00;;;;;;2098014;28;20064;-88
2022/01/22 02:32:26;;;;;;;5.82;2.40;;;5.70;96.10;;;;;;2080447;28;20033;-87
2022/01/22 02:33:36;;;;;;;4.55;2.33;;;5.70;96.10;;;;;;2072100;28;20088;-88
2022/01/22 02:34:54;;;;;;;5.63;2.20;;;5.70;96.10;;;;;;2090916;28;20025;-88
2022/01/22 02:36:20;;;;;;;5.72;2.17;;;5.70;96.10;;;;;;2085326;28;20119;-88
2022/01/22 02:37:23;;;;;;;4.53;2.20;;;5.70;96.10;;;;;;2081760;28;20041;-88
2022/01/22 02:38:36;;;;;;;6.00;2.58;;;5.70;96.00;;;;;;2081992;28;20056;-88
2022/01/22 02:40:00;;;;;;;5.20;2.50;;;5.70;96.00;;;;;;2083109;28;20407;-88
2022/01/22 02:40:57;;;;;;;6.35;2.40;;;5.80;96.10;;;;;;2083907;28;20139;-88
2022/01/22 02:41:58;;;;;;;5.13;2.30;;;5.70;96.00;;;;;;2082032;28;20042;-88
2022/01/22 02:43:00;;;;;;;5.43;2.42;;;5.70;96.00;;;;;;2078954;28;20385;-88
2022/01/22 02:44:01;;;;;;;5.63;2.85;;;5.70;96.10;;;;;;2081911;28;20109;-87
2022/01/22 02:45:10;;;;;;;4.88;2.30;;;5.70;96.10;;;;;;2096770;28;20044;-87
2022/01/22 02:46:13;;;;;;;5.47;2.47;;;5.70;96.10;;;;;;2097489;28;20028;-88
2022/01/22 02:47:15;;;;;;;4.97;2.28;;;5.70;96.10;;;;;;2081599;28;20167;-87
2022/01/22 02:48:16;;;;;;;6.28;2.78;;;5.70;96.10;;;;;;2082651;28;20447;-88
2022/01/22 02:49:17;;;;;;;6.35;2.67;;;5.80;96.10;;;;;;2090086;28;20033;-88
2022/01/22 02:50:18;;;;;;;6.20;2.58;;;5.70;96.10;;;;;;2090003;28;20037;-88
2022/01/22 02:51:19;;;;;;;6.68;2.38;;;5.70;96.10;;;;;;2090085;28;20041;-88
2022/01/22 02:52:20;;;;;;;5.35;2.63;;;5.80;96.10;;;;;;2088445;28;20044;-87
2022/01/22 02:53:21;;;;;;;5.40;2.50;;;5.70;96.10;;;;;;2082201;28;20495;-87
2022/01/22 02:54:22;;;;;;;5.28;2.85;;;5.70;96.10;;;;;;2070929;28;20488;-88
2022/01/22 02:55:22;;;;;;;6.05;2.47;;;5.70;96.10;;;;;;2065629;28;20042;-87
2022/01/22 02:56:24;;;;;;;5.35;2.60;;;5.70;96.10;;;;;;2081620;28;20065;-88
2022/01/22 02:57:25;;;;;;;3.88;2.55;;;5.70;96.20;;;;;;2090020;28;20075;-88
2022/01/22 02:58:25;;;;;;;5.22;2.20;;;5.70;96.20;;;;;;2087825;28;20580;-87
2022/01/22 02:59:26;;;;;;;6.00;2.83;;;5.80;96.20;;;;;;2089095;28;20037;-88
2022/01/22 03:00:27;;;;;;;5.65;2.88;;;5.70;96.20;;;;;;2106633;28;20044;-88
2022/01/22 03:01:28;;;;;;;8.80;2.83;;;5.80;96.20;;;;;;2081830;28;20034;-88
2022/01/22 03:02:29;;;;;;;6.53;2.90;;;5.80;96.20;;;;;;2085468;28;20127;-88
2022/01/22 03:03:29;;;;;;;8.20;3.03;;;5.70;96.20;;;;;;2105046;28;20047;-88
2022/01/22 03:04:31;;;;;;;4.22;2.58;;;5.80;96.20;;;;;;2083559;28;20073;-88
2022/01/22 03:05:31;;;;;;;7.65;2.92;;;5.80;96.20;;;;;;2079559;28;20029;-88
2022/01/22 03:06:32;;;;;;;5.43;2.60;;;5.80;96.20;;;;;;2091020;28;20036;-88
2022/01/22 03:07:33;;;;;;;5.82;2.45;;;5.80;96.20;;;;;;2093927;28;20403;-88
2022/01/22 03:08:34;;;;;;;4.43;2.42;;;5.80;96.20;;;;;;2097148;28;20127;-87
2022/01/22 03:09:43;;;;;;;5.22;2.75;;;5.80;96.20;;;;;;2096748;28;20032;-88
2022/01/22 03:10:49;;;;;;;7.15;3.17;;;5.80;96.20;;;;;;2098062;28;20554;-88
2022/01/22 03:12:20;;;;;;;6.53;2.65;;;5.80;96.50;;;;;;2097946;28;20060;-88
2022/01/22 03:16:01;;;;;;;5.05;2.63;;;5.80;96.20;;;;;;2095575;28;20033;-88
2022/01/22 03:18:36;;;;;;;6.90;3.03;;;5.80;96.20;;;;;;2086044;28;20076;-88
2022/01/22 03:27:23;;;;;;;4.38;2.60;;;5.80;96.10;;;;;;2101195;28;20044;-88
2022/01/22 03:28:28;;;;;;;3.83;2.42;;;5.80;96.10;;;;;;2081427;28;20103;-87
2022/01/22 03:29:35;;;;;;;5.32;2.40;;;5.80;96.10;;;;;;2081636;28;20377;-87
2022/01/22 03:30:35;;;;;;;5.18;2.60;;;5.80;96.10;;;;;;2082166;28;20091;-88
2022/01/22 03:31:37;;;;;;;4.60;2.40;;;5.80;96.10;;;;;;2089410;28;20033;-87
2022/01/22 03:32:42;;;;;;;5.95;2.70;;;5.80;96.10;;;;;;2086674;28;20033;-88
2022/01/22 03:33:43;;;;;;;7.25;2.55;;;5.80;96.20;;;;;;2089636;28;20558;-88
2022/01/22 03:34:56;;;;;;;5.80;2.70;;;5.80;96.20;;;;;;2105682;28;20024;-88
2022/01/22 03:35:57;;;;;;;7.63;2.40;;;5.80;96.20;;;;;;2104738;28;20486;-88
2022/01/22 03:36:58;;;;;;;4.70;2.40;;;5.80;96.20;;;;;;2079478;28;20093;-87
2022/01/22 03:37:58;;;;;;;6.43;2.95;;;5.80;96.20;;;;;;2071658;28;20041;-87
2022/01/22 03:39:02;;;;;;;7.00;2.55;;;5.80;96.20;;;;;;2073119;28;20072;-88
2022/01/22 03:40:03;;;;;;;4.80;2.65;;;5.80;96.50;;;;;;2077814;28;20144;-88
2022/01/22 03:41:04;;;;;;;4.82;2.63;;;5.80;96.20;;;;;;2081845;28;20079;-88
2022/01/22 03:42:05;;;;;;;5.72;2.70;;;5.90;96.20;;;;;;2090922;28;20044;-88
2022/01/22 03:43:06;;;;;;;4.95;2.40;;;5.80;96.20;;;;;;2089714;28;20045;-88
2022/01/22 03:44:08;;;;;;;5.68;2.58;;;5.90;96.20;;;;;;2089493;28;20603;-87
2022/01/22 03:45:11;;;;;;;5.35;2.83;;;5.90;96.20;;;;;;2095239;28;20505;-88
2022/01/22 03:46:11;;;;;;;5.85;2.65;;;5.90;96.30;;;;;;2080726;28;20456;-88
2022/01/22 03:47:12;;;;;;;3.90;2.25;;;5.90;96.30;;;;;;2081131;28;20041;-88
2022/01/22 03:48:13;;;;;;;5.70;2.85;;;5.90;96.30;;;;;;2089640;28;20041;-88
2022/01/22 03:49:16;;;;;;;6.00;3.00;;;5.90;96.30;;;;;;2067911;28;20065;-88
2022/01/22 03:50:19;;;;;;;6.25;2.78;;;5.90;96.30;;;;;;2075277;28;20045;-88
2022/01/22 03:51:20;;;;;;;6.13;2.55;;;5.90;96.30;;;;;;2094075;28;20119;-88
2022/01/22 03:52:21;;;;;;;6.28;2.67;;;5.90;96.30;;;;;;2079710;28;20038;-88
2022/01/22 03:53:21;;;;;;;6.18;2.83;;;5.90;96.30;;;;;;2080768;28;20034;-88
2022/01/22 03:54:22;;;;;;;4.53;2.47;;;5.90;96.30;;;;;;2089372;28;20037;-87
2022/01/22 03:55:45;;;;;;;6.22;2.55;;;5.90;96.30;;;;;;2094124;28;20024;-87
2022/01/22 03:56:46;;;;;;;6.43;2.90;;;5.90;96.30;;;;;;2097637;28;20048;-88
2022/01/22 03:57:47;;;;;;;5.30;2.55;;;5.90;96.30;;;;;;2084156;28;20071;-88
2022/01/22 03:58:48;;;;;;;7.80;3.10;;;5.90;96.30;;;;;;2081157;28;20049;-88
2022/01/22 03:59:50;;;;;;;7.05;2.67;;;5.90;96.30;;;;;;2080783;28;20065;-88
2022/01/22 04:01:01;;;;;;;5.38;2.70;;;5.90;96.50;;;;;;2089119;28;20041;-87
2022/01/22 04:04:17;;;;;;;4.82;2.67;;;5.90;96.30;;;;;;2090143;28;20033;-88
2022/01/22 04:05:18;;;;;;;7.70;2.60;;;5.90;96.30;;;;;;2073151;28;20167;-88
2022/01/22 04:08:39;;;;;;;6.60;2.75;;;5.90;96.30;;;;;;2089827;28;20411;-87
2022/01/22 04:09:44;;;;;;;7.18;2.92;;;5.90;96.30;;;;;;2087541;28;20032;-86
2022/01/22 04:10:44;;;;;;;6.75;2.63;;;5.90;96.30;;;;;;2087527;28;20037;-88
2022/01/22 04:11:46;;;;;;;4.60;2.88;;;5.90;96.30;;;;;;2088728;28;20399;-88
2022/01/22 04:13:06;;;;;;;5.78;2.60;;;5.90;96.30;;;;;;2097548;28;20033;-88
2022/01/22 04:14:14;;;;;;;5.88;2.70;;;5.90;96.30;;;;;;2099849;28;20040;-88
2022/01/22 04:15:19;;;;;;;6.43;2.35;;;5.90;96.30;;;;;;2088591;28;20045;-88
2022/01/22 04:16:20;;;;;;;4.93;2.80;;;5.90;96.30;;;;;;2081776;28;20031;-88
2022/01/22 04:24:47;;;;;;;6.40;2.50;;;5.90;96.30;;;;;;2097396;28;20036;-88
2022/01/22 04:25:25;;;;;;;6.90;2.17;;;5.90;96.50;;;;;;2105661;28;20051;-88
2022/01/22 04:27:45;;;;;;;4.85;2.10;;;5.90;96.30;;;;;;2083449;28;20052;-88
2022/01/22 04:28:46;;;;;;;5.07;2.20;;;5.90;96.20;;;;;;2082572;28;20064;-88
2022/01/22 04:29:46;;;;;;;7.72;2.28;;;5.90;96.20;;;;;;2095008;28;20037;-87
2022/01/22 04:30:47;;;;;;;6.05;2.50;;;5.90;96.20;;;;;;2088730;28;20037;-88
2022/01/22 04:31:47;;;;;;;5.57;2.42;;;5.90;96.30;;;;;;2072937;28;20611;-87
2022/01/22 04:32:49;;;;;;;5.60;2.05;;;5.90;96.30;;;;;;2079895;28;20033;-87
2022/01/22 04:33:50;;;;;;;3.38;2.00;;;6.00;96.30;;;;;;2084981;28;20041;-88
2022/01/22 04:34:51;;;;;;;5.20;2.10;;;5.90;96.30;;;;;;2090331;28;20033;-88
2022/01/22 04:35:51;;;;;;;4.05;2.20;;;5.90;96.30;;;;;;2081145;28;20045;-88
2022/01/22 04:36:52;;;;;;;4.60;1.90;;;6.00;96.30;;;;;;2089358;28;20083;-88
2022/01/22 04:37:53;;;;;;;4.47;2.40;;;5.90;96.30;;;;;;2097102;28;20032;-88
2022/01/22 04:38:53;;;;;;;4.45;2.08;;;6.00;96.40;;;;;;2101036;28;20036;-88
2022/01/22 04:39:54;;;;;;;4.10;2.13;;;6.00;96.30;;;;;;2080786;28;20061;-88
2022/01/22 04:40:55;;;;;;;4.95;2.10;;;6.00;96.30;;;;;;2072604;28;20042;-88
2022/01/22 04:41:56;;;;;;;3.95;2.00;;;6.00;96.40;;;;;;2073291;28;20034;-88
2022/01/22 04:42:59;;;;;;;4.03;2.05;;;6.00;96.30;;;;;;2094165;28;20091;-88
2022/01/22 04:44:03;;;;;;;5.88;2.20;;;6.00;96.30;;;;;;2102493;28;20071;-87
2022/01/22 04:45:14;;;;;;;5.15;2.20;;;6.00;96.30;;;;;;2090676;28;20450;-88
2022/01/22 04:46:26;;;;;;;5.22;2.10;;;6.00;96.30;;;;;;2089451;28;20411;-87
2022/01/22 04:47:42;;;;;;;5.00;1.88;;;6.00;96.30;;;;;;2089164;28;20041;-87
2022/01/22 04:48:54;;;;;;;4.10;1.90;;;6.00;96.30;;;;;;2098121;28;20036;-88
2022/01/22 04:55:00;;;;;;;5.38;1.73;;;6.00;96.30;;;;;;2080870;28;20084;-88
2022/01/22 04:56:00;;;;;;;4.22;1.88;;;6.00;96.30;;;;;;2088140;28;20033;-87
2022/01/22 04:57:02;;;;;;;3.65;1.75;;;6.00;96.30;;;;;;2088520;28;20067;-87
2022/01/22 04:58:03;;;;;;;3.80;1.75;;;6.00;96.30;;;;;;2084766;28;20036;-87
2022/01/22 04:59:04;;;;;;;4.05;1.55;;;6.00;96.30;;;;;;2094317;28;20032;-87
2022/01/22 05:00:10;;;;;;;4.50;1.70;;;6.00;96.30;;;;;;2088519;28;20491;-88
2022/01/22 05:01:10;;;;;;;4.63;1.85;;;6.00;96.30;;;;;;2078978;28;20109;-87
2022/01/22 05:02:11;;;;;;;3.83;1.55;;;6.00;96.30;;;;;;2072472;28;20160;-88
2022/01/22 05:03:13;;;;;;;4.85;2.05;;;6.00;96.30;;;;;;2063970;28;20488;-88
2022/01/22 05:04:13;;;;;;;4.65;1.70;;;6.00;96.30;;;;;;2098068;28;20529;-88
2022/01/22 05:05:14;;;;;;;4.80;1.70;;;6.00;96.30;;;;;;2092978;28;20060;-87
2022/01/22 05:06:14;;;;;;;4.03;1.60;;;6.00;96.30;;;;;;2080462;28;20041;-88
2022/01/22 05:07:15;;;;;;;5.25;1.83;;;6.00;96.30;;;;;;2083150;28;20029;-87
2022/01/22 05:08:16;;;;;;;5.97;1.70;;;6.00;96.30;;;;;;2092513;28;20135;-87
2022/01/22 05:09:16;;;;;;;4.15;1.83;;;6.00;96.30;;;;;;2088541;28;20475;-88
2022/01/22 05:10:17;;;;;;;4.57;1.92;;;6.00;96.30;;;;;;2087430;28;20063;-88
2022/01/22 05:11:18;;;;;;;4.35;1.70;;;6.00;96.30;;;;;;2090881;28;20037;-88
2022/01/22 05:12:19;;;;;;;4.10;1.60;;;6.00;96.40;;;;;;2080784;28;20083;-87
2022/01/22 05:13:19;;;;;;;5.13;1.75;;;6.00;96.40;;;;;;2083377;28;20472;-87
2022/01/22 05:14:20;;;;;;;3.67;1.80;;;6.00;96.40;;;;;;2088336;28;20156;-88
2022/01/22 05:15:21;;;;;;;5.38;1.38;;;6.00;96.40;;;;;;2094963;28;20100;-88
2022/01/22 05:16:22;;;;;;;3.70;1.60;;;6.00;96.40;;;;;;2089048;28;20377;-87
2022/01/22 05:17:23;;;;;;;4.20;1.67;;;6.10;96.70;;;;;;2084564;28;20068;-87
2022/01/22 05:18:24;;;;;;;5.32;1.67;;;6.00;96.40;;;;;;2083971;28;20056;-88
2022/01/22 05:19:35;;;;;;;4.45;1.70;;;6.00;96.40;;;;;;2090813;28;20033;-87
2022/01/22 05:20:45;;;;;;;3.80;1.70;;;6.10;96.40;;;;;;2087125;28;20044;-88
2022/01/22 05:21:47;;;;;;;4.15;1.42;;;6.00;96.40;;;;;;2086577;28;20025;-87
2022/01/22 05:23:04;;;;;;;3.15;1.40;;;6.10;96.40;;;;;;2090090;28;20588;-88
2022/01/22 05:24:09;;;;;;;2.85;1.48;;;6.00;96.40;;;;;;2082357;28;20030;-87
2022/01/22 05:25:19;;;;;;;3.17;1.20;;;6.10;96.40;;;;;;2078158;28;20041;-87
2022/01/22 05:28:49;;;;;;;4.95;1.65;;;6.00;96.40;;;;;;2056030;28;20062;-87
2022/01/22 05:30:48;;;;;;;3.00;1.30;;;6.10;96.40;;;;;;2090166;28;20029;-87
2022/01/22 05:32:05;;;;;;;4.13;1.33;;;6.10;96.40;;;;;;2101880;28;20135;-87
2022/01/22 05:37:59;;;;;;;2.58;1.02;;;6.00;96.30;;;;;;2064947;28;20050;-88
2022/01/22 05:38:59;;;;;;;3.00;1.20;;;6.00;96.30;;;;;;2073475;28;20588;-88
2022/01/22 05:40:00;;;;;;;5.28;1.20;;;6.00;96.30;;;;;;2072497;28;20045;-88
2022/01/22 05:41:02;;;;;;;6.82;1.30;;;6.00;96.30;;;;;;2059800;28;20065;-88
2022/01/22 05:42:05;;;;;;;2.15;1.10;;;6.00;96.40;;;;;;2060213;28;20034;-88
2022/01/22 05:43:06;;;;;;;3.35;1.30;;;6.00;96.40;;;;;;2076965;28;20100;-88
2022/01/22 05:44:07;;;;;;;3.75;1.33;;;6.00;96.40;;;;;;2076933;28;20517;-88
2022/01/22 05:45:08;;;;;;;3.72;1.27;;;6.00;96.40;;;;;;2090469;28;20452;-88
2022/01/22 05:46:09;;;;;;;3.25;1.23;;;6.00;96.40;;;;;;2093006;28;20037;-88
2022/01/22 05:47:11;;;;;;;4.65;1.25;;;6.00;96.40;;;;;;2106595;28;20044;-87
2022/01/22 05:48:12;;;;;;;4.53;1.50;;;6.00;96.40;;;;;;2103387;28;20048;-87
2022/01/22 05:49:12;;;;;;;4.15;1.40;;;6.00;96.40;;;;;;2085677;28;22558;-87
2022/01/22 05:50:26;;;;;;;3.00;1.10;;;6.10;96.40;;;;;;2090711;28;20037;-88
2022/01/22 05:51:27;;;;;;;2.28;1.10;;;6.10;96.50;;;;;;2092181;28;20040;-87
2022/01/22 05:52:37;;;;;;;3.33;1.40;;;6.00;96.40;;;;;;2099690;28;20483;-87
2022/01/22 05:53:56;;;;;;;3.78;1.30;;;6.00;96.40;;;;;;2105859;28;20107;-87
2022/01/22 05:59:46;;;;;;;3.53;1.20;;;6.00;96.50;;;;;;2083536;28;20128;-87
2022/01/22 06:00:48;;;;;;;3.15;1.00;;;6.00;96.40;;;;;;2095461;28;20406;-88
2022/01/22 06:01:49;;;;;;;2.63;1.23;;;5.90;96.40;;;;;;2091578;28;20082;-88
2022/01/22 06:02:50;;;;;;;3.65;1.30;;;6.00;96.40;;;;;;2079153;28;20458;-88
2022/01/22 06:03:50;;;;;;;2.92;1.40;;;6.00;96.40;;;;;;2089705;28;20033;-88
2022/01/22 06:04:51;;;;;;;5.10;1.35;;;6.00;96.50;;;;;;2090996;28;20033;-87
2022/01/22 06:05:52;;;;;;;2.17;1.20;;;6.00;96.50;;;;;;2082580;28;20127;-88
2022/01/22 06:06:52;;;;;;;3.20;1.33;;;6.00;96.50;;;;;;2086604;28;20083;-88
2022/01/22 06:07:53;;;;;;;3.92;1.77;;;6.00;96.50;;;;;;2081831;28;20046;-87
2022/01/22 06:08:54;;;;;;;4.47;1.70;;;6.00;96.40;;;;;;2090212;28;20075;-88
2022/01/22 06:11:08;;;;;;;3.42;1.40;;;6.00;96.50;;;;;;2097476;28;20041;-87
2022/01/22 06:13:16;;;;;;;2.75;1.13;;;6.10;96.50;;;;;;2097721;28;20037;-87
2022/01/22 06:14:17;;;;;;;4.88;1.50;;;6.00;96.50;;;;;;2074908;28;20507;-86
2022/01/22 06:15:18;;;;;;;5.10;1.77;;;6.10;96.50;;;;;;2079972;28;20519;-88
2022/01/22 06:16:21;;;;;;;2.85;1.38;;;6.10;96.50;;;;;;2092408;28;20044;-88
2022/01/22 06:17:22;;;;;;;3.60;1.50;;;6.00;96.50;;;;;;2082661;28;20025;-88
2022/01/22 06:18:22;;;;;;;3.22;1.42;;;6.10;96.50;;;;;;2090528;28;20041;-87
2022/01/22 06:19:23;;;;;;;4.78;1.63;;;6.10;96.50;;;;;;2095154;28;20036;-86
2022/01/22 06:20:24;;;;;;;3.70;1.48;;;6.10;96.50;;;;;;2097900;28;20525;-87
2022/01/22 06:21:24;;;;;;;3.50;1.35;;;6.10;96.50;;;;;;2089309;28;20029;-86
2022/01/22 06:22:25;;;;;;;4.43;1.60;;;6.10;96.50;;;;;;2079291;28;20488;-87
2022/01/22 06:23:26;;;;;;;4.15;1.60;;;6.10;96.50;;;;;;2081253;28;20184;-87
2022/01/22 06:24:27;;;;;;;3.95;1.73;;;6.10;96.50;;;;;;2081712;28;20381;-87
2022/01/22 06:25:28;;;;;;;3.10;1.73;;;6.10;96.80;;;;;;2088626;28;20056;-87
2022/01/22 06:26:29;;;;;;;3.22;1.80;;;6.10;96.50;;;;;;2093475;28;20182;-87
2022/01/22 06:27:30;;;;;;;5.25;2.08;;;6.10;96.50;;;;;;2089558;28;20099;-87
2022/01/22 06:28:32;;;;;;;3.35;1.88;;;6.10;96.50;;;;;;2094512;28;20056;-88
2022/01/22 06:29:32;;;;;;;3.53;1.70;;;6.10;96.50;;;;;;2084333;28;20495;-87
2022/01/22 06:30:33;;;;;;;3.33;1.80;;;6.10;96.50;;;;;;2081078;28;20047;-88
2022/01/22 06:31:34;;;;;;;5.07;1.90;;;6.10;96.50;;;;;;2087903;28;20033;-87
2022/01/22 06:32:35;;;;;;;5.15;1.92;;;6.10;96.50;;;;;;2090714;28;20040;-87
2022/01/22 06:33:36;;;;;;;4.28;1.88;;;6.10;96.50;;;;;;2092470;28;20025;-87
2022/01/22 06:34:37;;;;;;;4.45;1.75;;;6.10;96.50;;;;;;2102891;28;20468;-87
2022/01/22 06:35:37;;;;;;;3.45;1.95;;;6.20;96.50;;;;;;2096520;28;20131;-87
2022/01/22 06:36:38;;;;;;;4.65;1.90;;;6.10;96.50;;;;;;2085380;28;20068;-87
2022/01/22 06:37:38;;;;;;;4.30;1.80;;;6.10;96.50;;;;;;2090374;28;20037;-87
2022/01/22 06:38:39;;;;;;;4.25;1.90;;;6.10;96.50;;;;;;2087412;28;20041;-87
2022/01/22 06:42:19;;;;;;;4.97;2.17;;;6.20;96.50;;;;;;2095206;28;20124;-87
2022/01/22 06:43:19;;;;;;;5.55;1.90;;;6.20;96.50;;;;;;2081768;28;20096;-88
2022/01/22 06:44:23;;;;;;;3.72;2.15;;;6.20;96.50;;;;;;2080920;28;20496;-87
2022/01/22 06:45:24;;;;;;;4.00;2.03;;;6.20;96.50;;;;;;2097339;28;20090;-86
2022/01/22 06:46:24;;;;;;;5.28;2.38;;;6.10;96.50;;;;;;2085558;28;20475;-87
2022/01/22 06:47:26;;;;;;;4.70;2.33;;;6.10;96.50;;;;;;2076045;28;20075;-87
2022/01/22 06:48:27;;;;;;;3.53;2.38;;;6.20;96.50;;;;;;2085720;28;20435;-87
2022/01/22 06:49:27;;;;;;;4.22;2.13;;;6.20;96.50;;;;;;2088466;28;20036;-88
2022/01/22 06:50:28;;;;;;;2.95;1.90;;;6.20;96.50;;;;;;2089849;28;20041;-87